Main page
METAR-TAF:

METAR-TAF

Airports :

Carlisle, England

Carlisle Lake District Airport

latitude: 54-56-15N, longitude: 002-48-33W, elevation: 57 m

Current weather observation

The report was made 10 minutes ago, at 11:50 UTC
Wind 14 kt from the West/Southwest
Temperature 11°C
Humidity 94%
Pressure 1006 hPa
Visibility: 6000 m
Broken clouds at a height of 700 ft
Overcast at a height of 1000 ft
light rain

METAR: EGNC 201150Z 25014KT 6000 -RA BKN007 OVC010 11/10 Q1006

Time: 12:00 (12:00 UTC)

Forecast

The report was made 58 minutes ago, at 11:02 UTC
Forecast valid from 20 at 12 UTC to 20 at 18 UTC
Wind 12 kt from the West/Southwest
Visibility 10 km or more
Broken clouds at a height of 1500 ft
Temporary
from 20 at 12 UTC to 20 at 15 UTC
Visibility: 4000 m
Broken clouds at a height of 800 ft
rain, mist

TAF: EGNC 201102Z 2012/2018 25012KT 9999 BKN015 TEMPO 2012/2015 4000 RA BR BKN008

Weather observations and forecasts of more than 4000 airports (METAR and TAF reports).

The available stations are represented by yellow and red dots on the map.

Hover mouse over dot to see the name of the station.

Then click to see weather observations and forecasts.

To change the map : click on the green buttons with a black cross to zoom in, on the green button with a dash to zoom out, or on the green arrows for adjacent maps.


METAR-TAF: